sensor_id;sensor_type;location;lat;lon;timestamp;temperature;humidity
13405;DHT22;6773;51.192;7.024;2023-03-01T00:01:33;0.00;99.90
13405;DHT22;6773;51.192;7.024;2023-03-01T00:03:59;-0.10;99.90
13405;DHT22;6773;51.192;7.024;2023-03-01T00:06:25;-0.10;99.90
13405;DHT22;6773;51.192;7.024;2023-03-01T00:08:51;-0.20;99.90
13405;DHT22;6773;51.192;7.024;2023-03-01T00:11:22;-0.20;99.90
13405;DHT22;6773;51.192;7.024;2023-03-01T00:13:50;-0.20;99.90
13405;DHT22;6773;51.192;7.024;2023-03-01T00:16:22;-0.20;99.90
13405;DHT22;6773;51.192;7.024;2023-03-01T00:18:48;-0.30;99.90
13405;DHT22;6773;51.192;7.024;2023-03-01T00:21:14;-0.40;99.90
13405;DHT22;6773;51.192;7.024;2023-03-01T00:26:08;-0.40;99.90
13405;DHT22;6773;51.192;7.024;2023-03-01T00:28:34;-0.40;99.90
13405;DHT22;6773;51.192;7.024;2023-03-01T00:31:10;-0.40;99.90
13405;DHT22;6773;51.192;7.024;2023-03-01T00:36:02;-0.40;99.90
13405;DHT22;6773;51.192;7.024;2023-03-01T00:38:28;-0.30;99.90
13405;DHT22;6773;51.192;7.024;2023-03-01T00:43:20;-0.40;99.90
13405;DHT22;6773;51.192;7.024;2023-03-01T00:45:46;-0.40;99.90
13405;DHT22;6773;51.192;7.024;2023-03-01T00:48:12;-0.40;99.90
13405;DHT22;6773;51.192;7.024;2023-03-01T00:50:37;-0.40;99.90
13405;DHT22;6773;51.192;7.024;2023-03-01T00:53:03;-0.30;99.90
13405;DHT22;6773;51.192;7.024;2023-03-01T00:57:56;-0.40;99.90
13405;DHT22;6773;51.192;7.024;2023-03-01T01:00:21;-0.40;99.90
13405;DHT22;6773;51.192;7.024;2023-03-01T01:02:48;-0.30;99.90
13405;DHT22;6773;51.192;7.024;2023-03-01T01:05:13;-0.40;99.90
13405;DHT22;6773;51.192;7.024;2023-03-01T01:12:32;-0.40;99.90
13405;DHT22;6773;51.192;7.024;2023-03-01T01:14:57;-0.50;99.90
13405;DHT22;6773;51.192;7.024;2023-03-01T01:17:23;-0.50;99.90
13405;DHT22;6773;51.192;7.024;2023-03-01T01:19:49;-0.50;99.90
13405;DHT22;6773;51.192;7.024;2023-03-01T01:24:40;-0.50;99.90
13405;DHT22;6773;51.192;7.024;2023-03-01T01:27:06;-0.60;99.90
13405;DHT22;6773;51.192;7.024;2023-03-01T01:29:32;-0.60;99.90
13405;DHT22;6773;51.192;7.024;2023-03-01T01:31:58;-0.60;99.90
13405;DHT22;6773;51.192;7.024;2023-03-01T01:34:24;-0.70;99.90
13405;DHT22;6773;51.192;7.024;2023-03-01T01:36:53;-0.70;99.90
13405;DHT22;6773;51.192;7.024;2023-03-01T01:39:20;-0.80;99.90
13405;DHT22;6773;51.192;7.024;2023-03-01T01:41:46;-0.80;99.90
13405;DHT22;6773;51.192;7.024;2023-03-01T01:44:23;-0.80;99.90
13405;DHT22;6773;51.192;7.024;2023-03-01T01:49:43;-0.80;99.90
13405;DHT22;6773;51.192;7.024;2023-03-01T01:54:46;-0.80;99.90
13405;DHT22;6773;51.192;7.024;2023-03-01T01:57:27;-0.80;99.90
13405;DHT22;6773;51.192;7.024;2023-03-01T01:59:57;-0.80;99.90
13405;DHT22;6773;51.192;7.024;2023-03-01T02:02:24;-0.90;99.90
13405;DHT22;6773;51.192;7.024;2023-03-01T02:04:53;-0.90;99.90
13405;DHT22;6773;51.192;7.024;2023-03-01T02:07:22;-0.90;99.90
13405;DHT22;6773;51.192;7.024;2023-03-01T02:09:50;-0.90;99.90
13405;DHT22;6773;51.192;7.024;2023-03-01T02:12:20;-0.90;99.90
13405;DHT22;6773;51.192;7.024;2023-03-01T02:14:46;-0.90;99.90
13405;DHT22;6773;51.192;7.024;2023-03-01T02:17:14;-0.90;99.90
13405;DHT22;6773;51.192;7.024;2023-03-01T02:22:34;-1.00;99.90
13405;DHT22;6773;51.192;7.024;2023-03-01T02:25:41;-1.00;99.90
13405;DHT22;6773;51.192;7.024;2023-03-01T02:30:37;-1.00;99.90
13405;DHT22;6773;51.192;7.024;2023-03-01T02:33:24;-1.00;99.90
13405;DHT22;6773;51.192;7.024;2023-03-01T02:35:50;-1.00;99.90
13405;DHT22;6773;51.192;7.024;2023-03-01T02:38:16;-1.00;99.90
13405;DHT22;6773;51.192;7.024;2023-03-01T02:43:10;-1.10;99.90
13405;DHT22;6773;51.192;7.024;2023-03-01T02:48:03;-1.10;99.90
13405;DHT22;6773;51.192;7.024;2023-03-01T02:53:09;-1.10;99.90
13405;DHT22;6773;51.192;7.024;2023-03-01T02:55:36;-1.20;99.90
13405;DHT22;6773;51.192;7.024;2023-03-01T02:58:02;-1.20;99.90
13405;DHT22;6773;51.192;7.024;2023-03-01T03:00:38;-1.20;99.90
13405;DHT22;6773;51.192;7.024;2023-03-01T03:03:15;-1.20;99.90
13405;DHT22;6773;51.192;7.024;2023-03-01T03:05:42;-1.20;99.90
13405;DHT22;6773;51.192;7.024;2023-03-01T03:10:37;-1.20;99.90
13405;DHT22;6773;51.192;7.024;2023-03-01T03:13:06;-1.10;99.90
13405;DHT22;6773;51.192;7.024;2023-03-01T03:15:32;-1.30;99.90
13405;DHT22;6773;51.192;7.024;2023-03-01T03:18:02;-1.30;99.90
13405;DHT22;6773;51.192;7.024;2023-03-01T03:20:29;-1.00;99.90
13405;DHT22;6773;51.192;7.024;2023-03-01T03:22:56;-1.40;99.90
13405;DHT22;6773;51.192;7.024;2023-03-01T03:25:22;-1.40;99.90
13405;DHT22;6773;51.192;7.024;2023-03-01T03:27:49;-1.40;99.90
13405;DHT22;6773;51.192;7.024;2023-03-01T03:30:22;-1.50;99.90
13405;DHT22;6773;51.192;7.024;2023-03-01T03:32:48;-1.50;99.90
13405;DHT22;6773;51.192;7.024;2023-03-01T03:35:23;-1.50;99.90
13405;DHT22;6773;51.192;7.024;2023-03-01T03:37:50;-1.50;99.90
13405;DHT22;6773;51.192;7.024;2023-03-01T03:40:39;-1.70;99.90
13405;DHT22;6773;51.192;7.024;2023-03-01T03:43:11;-1.70;99.90
13405;DHT22;6773;51.192;7.024;2023-03-01T03:45:37;-1.70;99.90
13405;DHT22;6773;51.192;7.024;2023-03-01T03:48:05;-1.80;99.90
13405;DHT22;6773;51.192;7.024;2023-03-01T03:50:31;-1.70;99.90
13405;DHT22;6773;51.192;7.024;2023-03-01T03:52:57;-1.70;99.90
13405;DHT22;6773;51.192;7.024;2023-03-01T03:57:53;-1.70;99.90
13405;DHT22;6773;51.192;7.024;2023-03-01T04:00:21;-1.60;99.90
13405;DHT22;6773;51.192;7.024;2023-03-01T04:02:47;-1.60;99.90
13405;DHT22;6773;51.192;7.024;2023-03-01T04:05:14;-1.70;99.90
13405;DHT22;6773;51.192;7.024;2023-03-01T04:07:41;-1.70;99.90
13405;DHT22;6773;51.192;7.024;2023-03-01T04:10:15;-1.60;99.90
13405;DHT22;6773;51.192;7.024;2023-03-01T04:12:41;-1.60;99.90
13405;DHT22;6773;51.192;7.024;2023-03-01T04:15:10;-1.70;99.90
13405;DHT22;6773;51.192;7.024;2023-03-01T04:17:47;-1.60;99.90
13405;DHT22;6773;51.192;7.024;2023-03-01T04:20:16;-1.60;99.90
13405;DHT22;6773;51.192;7.024;2023-03-01T04:22:43;-1.60;99.90
13405;DHT22;6773;51.192;7.024;2023-03-01T04:25:12;-1.60;99.90
13405;DHT22;6773;51.192;7.024;2023-03-01T04:27:40;-1.60;99.90
13405;DHT22;6773;51.192;7.024;2023-03-01T04:30:08;-1.60;99.90
13405;DHT22;6773;51.192;7.024;2023-03-01T04:32:33;-1.60;99.90
13405;DHT22;6773;51.192;7.024;2023-03-01T04:34:59;-1.50;99.90
13405;DHT22;6773;51.192;7.024;2023-03-01T04:37:26;-1.60;99.90
13405;DHT22;6773;51.192;7.024;2023-03-01T04:39:51;-1.60;99.90
13405;DHT22;6773;51.192;7.024;2023-03-01T04:42:18;-1.70;99.90
13405;DHT22;6773;51.192;7.024;2023-03-01T04:44:44;-1.60;99.90
13405;DHT22;6773;51.192;7.024;2023-03-01T04:47:11;-1.70;99.90
13405;DHT22;6773;51.192;7.024;2023-03-01T04:52:03;-1.60;99.90
13405;DHT22;6773;51.192;7.024;2023-03-01T04:54:30;-1.70;99.90
13405;DHT22;6773;51.192;7.024;2023-03-01T04:56:57;-1.70;99.90
13405;DHT22;6773;51.192;7.024;2023-03-01T05:01:49;-1.70;99.90
13405;DHT22;6773;51.192;7.024;2023-03-01T05:06:42;-1.60;99.90
13405;DHT22;6773;51.192;7.024;2023-03-01T05:09:07;-1.60;99.90
13405;DHT22;6773;51.192;7.024;2023-03-01T05:14:05;-1.60;99.90
13405;DHT22;6773;51.192;7.024;2023-03-01T05:16:30;-1.70;99.90
13405;DHT22;6773;51.192;7.024;2023-03-01T05:18:57;-1.70;99.90
13405;DHT22;6773;51.192;7.024;2023-03-01T05:23:50;-1.80;99.90
13405;DHT22;6773;51.192;7.024;2023-03-01T05:26:18;-1.70;99.90
13405;DHT22;6773;51.192;7.024;2023-03-01T05:28:44;-1.70;99.90
13405;DHT22;6773;51.192;7.024;2023-03-01T05:31:10;-1.70;99.90
13405;DHT22;6773;51.192;7.024;2023-03-01T05:33:36;-1.70;99.90
13405;DHT22;6773;51.192;7.024;2023-03-01T05:36:04;-1.60;99.90
13405;DHT22;6773;51.192;7.024;2023-03-01T05:38:29;-1.60;99.90
13405;DHT22;6773;51.192;7.024;2023-03-01T05:40:55;-1.50;99.90
13405;DHT22;6773;51.192;7.024;2023-03-01T05:45:47;-1.50;99.90
13405;DHT22;6773;51.192;7.024;2023-03-01T05:48:13;-1.60;99.90
13405;DHT22;6773;51.192;7.024;2023-03-01T05:50:41;-1.60;99.90
13405;DHT22;6773;51.192;7.024;2023-03-01T05:53:11;-1.50;99.90
13405;DHT22;6773;51.192;7.024;2023-03-01T05:55:37;-1.60;99.90
13405;DHT22;6773;51.192;7.024;2023-03-01T05:58:05;-1.40;99.90
13405;DHT22;6773;51.192;7.024;2023-03-01T06:00:31;-1.40;99.90
13405;DHT22;6773;51.192;7.024;2023-03-01T06:02:59;-1.40;99.90
13405;DHT22;6773;51.192;7.024;2023-03-01T06:05:26;-1.30;99.90
13405;DHT22;6773;51.192;7.024;2023-03-01T06:07:52;-1.40;99.90
13405;DHT22;6773;51.192;7.024;2023-03-01T06:10:19;-1.40;99.90
13405;DHT22;6773;51.192;7.024;2023-03-01T06:12:45;-1.40;99.90
13405;DHT22;6773;51.192;7.024;2023-03-01T06:15:12;-1.30;99.90
13405;DHT22;6773;51.192;7.024;2023-03-01T06:17:41;-1.30;99.90
13405;DHT22;6773;51.192;7.024;2023-03-01T06:22:41;-1.50;99.90
13405;DHT22;6773;51.192;7.024;2023-03-01T06:25:07;-1.30;99.90
13405;DHT22;6773;51.192;7.024;2023-03-01T06:27:33;-1.40;99.90
13405;DHT22;6773;51.192;7.024;2023-03-01T06:29:58;-1.30;99.90
13405;DHT22;6773;51.192;7.024;2023-03-01T06:32:24;-1.40;99.90
13405;DHT22;6773;51.192;7.024;2023-03-01T06:34:50;-1.30;99.90
13405;DHT22;6773;51.192;7.024;2023-03-01T06:37:15;-1.30;99.90
13405;DHT22;6773;51.192;7.024;2023-03-01T06:39:41;-1.30;99.90
13405;DHT22;6773;51.192;7.024;2023-03-01T06:42:08;-1.30;99.90
13405;DHT22;6773;51.192;7.024;2023-03-01T06:44:35;-1.20;99.90
13405;DHT22;6773;51.192;7.024;2023-03-01T06:47:01;-1.20;99.90
13405;DHT22;6773;51.192;7.024;2023-03-01T06:49:27;-1.20;99.90
13405;DHT22;6773;51.192;7.024;2023-03-01T06:51:52;-1.10;99.90
13405;DHT22;6773;51.192;7.024;2023-03-01T06:54:18;-0.90;99.90
13405;DHT22;6773;51.192;7.024;2023-03-01T06:56:46;-0.80;99.90
13405;DHT22;6773;51.192;7.024;2023-03-01T06:59:13;-0.60;99.90
13405;DHT22;6773;51.192;7.024;2023-03-01T07:01:38;-0.40;99.90
13405;DHT22;6773;51.192;7.024;2023-03-01T07:06:30;0.00;99.90
13405;DHT22;6773;51.192;7.024;2023-03-01T07:08:56;0.20;99.90
13405;DHT22;6773;51.192;7.024;2023-03-01T07:11:21;0.40;99.90
13405;DHT22;6773;51.192;7.024;2023-03-01T07:13:47;0.60;99.90
13405;DHT22;6773;51.192;7.024;2023-03-01T07:16:13;0.60;99.90
13405;DHT22;6773;51.192;7.024;2023-03-01T07:18:41;0.90;99.90
13405;DHT22;6773;51.192;7.024;2023-03-01T07:21:08;1.10;99.40
13405;DHT22;6773;51.192;7.024;2023-03-01T07:26:00;1.40;98.80
13405;DHT22;6773;51.192;7.024;2023-03-01T07:28:27;1.60;98.10
13405;DHT22;6773;51.192;7.024;2023-03-01T07:30:53;1.70;97.70
13405;DHT22;6773;51.192;7.024;2023-03-01T07:33:19;1.70;97.60
13405;DHT22;6773;51.192;7.024;2023-03-01T07:43:02;1.80;97.30
13405;DHT22;6773;51.192;7.024;2023-03-01T07:45:28;1.90;96.80
13405;DHT22;6773;51.192;7.024;2023-03-01T07:47:55;1.80;96.90
13405;DHT22;6773;51.192;7.024;2023-03-01T07:50:22;2.00;97.10
13405;DHT22;6773;51.192;7.024;2023-03-01T07:52:49;2.10;96.60
13405;DHT22;6773;51.192;7.024;2023-03-01T07:55:15;2.10;96.30
13405;DHT22;6773;51.192;7.024;2023-03-01T07:57:41;2.10;96.30
13405;DHT22;6773;51.192;7.024;2023-03-01T08:00:09;2.10;96.30
13405;DHT22;6773;51.192;7.024;2023-03-01T08:02:35;2.20;96.20
13405;DHT22;6773;51.192;7.024;2023-03-01T08:05:00;2.20;96.00
13405;DHT22;6773;51.192;7.024;2023-03-01T08:07:26;2.30;95.40
13405;DHT22;6773;51.192;7.024;2023-03-01T08:09:52;2.30;95.00
13405;DHT22;6773;51.192;7.024;2023-03-01T08:12:17;2.40;95.20
13405;DHT22;6773;51.192;7.024;2023-03-01T08:14:43;2.60;94.80
13405;DHT22;6773;51.192;7.024;2023-03-01T08:17:08;2.70;94.80
13405;DHT22;6773;51.192;7.024;2023-03-01T08:19:34;2.90;94.90
13405;DHT22;6773;51.192;7.024;2023-03-01T08:22:01;3.20;94.80
13405;DHT22;6773;51.192;7.024;2023-03-01T08:26:53;3.50;94.30
13405;DHT22;6773;51.192;7.024;2023-03-01T08:31:45;3.80;94.10
13405;DHT22;6773;51.192;7.024;2023-03-01T08:34:13;3.90;94.00
13405;DHT22;6773;51.192;7.024;2023-03-01T08:36:41;4.20;93.80
13405;DHT22;6773;51.192;7.024;2023-03-01T08:39:08;4.30;93.60
13405;DHT22;6773;51.192;7.024;2023-03-01T08:44:00;4.70;93.20
13405;DHT22;6773;51.192;7.024;2023-03-01T08:46:30;5.00;92.90
13405;DHT22;6773;51.192;7.024;2023-03-01T08:48:56;5.10;91.10
13405;DHT22;6773;51.192;7.024;2023-03-01T08:51:23;5.30;91.50
13405;DHT22;6773;51.192;7.024;2023-03-01T08:53:49;5.40;90.50
13405;DHT22;6773;51.192;7.024;2023-03-01T08:56:15;5.50;90.50
13405;DHT22;6773;51.192;7.024;2023-03-01T08:58:47;5.70;90.70
13405;DHT22;6773;51.192;7.024;2023-03-01T09:01:15;5.90;90.10
13405;DHT22;6773;51.192;7.024;2023-03-01T09:03:42;6.10;90.20
13405;DHT22;6773;51.192;7.024;2023-03-01T09:06:08;6.20;89.30
13405;DHT22;6773;51.192;7.024;2023-03-01T09:08:39;6.30;87.20
13405;DHT22;6773;51.192;7.024;2023-03-01T09:11:07;6.20;87.20
13405;DHT22;6773;51.192;7.024;2023-03-01T09:13:33;6.30;87.50
13405;DHT22;6773;51.192;7.024;2023-03-01T09:16:01;6.20;86.00
13405;DHT22;6773;51.192;7.024;2023-03-01T09:18:27;6.00;86.80
13405;DHT22;6773;51.192;7.024;2023-03-01T09:23:20;6.20;85.70
13405;DHT22;6773;51.192;7.024;2023-03-01T09:25:46;6.20;85.50
13405;DHT22;6773;51.192;7.024;2023-03-01T09:28:12;6.40;85.00
13405;DHT22;6773;51.192;7.024;2023-03-01T09:30:37;6.60;84.80
13405;DHT22;6773;51.192;7.024;2023-03-01T09:33:03;6.60;83.30
13405;DHT22;6773;51.192;7.024;2023-03-01T09:35:29;7.00;83.50
13405;DHT22;6773;51.192;7.024;2023-03-01T09:40:24;7.50;80.10
13405;DHT22;6773;51.192;7.024;2023-03-01T09:43:11;7.40;80.40
13405;DHT22;6773;51.192;7.024;2023-03-01T09:45:41;7.50;77.50
13405;DHT22;6773;51.192;7.024;2023-03-01T09:48:15;7.20;80.10
13405;DHT22;6773;51.192;7.024;2023-03-01T09:50:43;7.00;77.50
13405;DHT22;6773;51.192;7.024;2023-03-01T09:53:21;7.20;81.40
13405;DHT22;6773;51.192;7.024;2023-03-01T09:56:28;7.30;79.90
13405;DHT22;6773;51.192;7.024;2023-03-01T10:01:55;7.50;78.90
13405;DHT22;6773;51.192;7.024;2023-03-01T10:04:41;8.00;76.60
13405;DHT22;6773;51.192;7.024;2023-03-01T10:07:29;8.60;76.30
13405;DHT22;6773;51.192;7.024;2023-03-01T10:09:58;8.70;74.70
13405;DHT22;6773;51.192;7.024;2023-03-01T10:12:27;8.00;72.50
13405;DHT22;6773;51.192;7.024;2023-03-01T10:15:06;8.50;75.60
13405;DHT22;6773;51.192;7.024;2023-03-01T10:17:56;8.70;71.90
13405;DHT22;6773;51.192;7.024;2023-03-01T10:20:33;7.40;73.00
13405;DHT22;6773;51.192;7.024;2023-03-01T10:23:02;7.90;76.70
13405;DHT22;6773;51.192;7.024;2023-03-01T10:28:31;9.60;71.90
13405;DHT22;6773;51.192;7.024;2023-03-01T10:31:01;9.00;69.30
13405;DHT22;6773;51.192;7.024;2023-03-01T10:33:30;9.30;71.70
13405;DHT22;6773;51.192;7.024;2023-03-01T10:35:56;10.00;70.90
13405;DHT22;6773;51.192;7.024;2023-03-01T10:38:22;10.10;71.20
13405;DHT22;6773;51.192;7.024;2023-03-01T10:40:54;10.30;70.70
13405;DHT22;6773;51.192;7.024;2023-03-01T10:43:23;10.60;68.60
13405;DHT22;6773;51.192;7.024;2023-03-01T10:48:21;11.40;66.60
13405;DHT22;6773;51.192;7.024;2023-03-01T10:51:12;11.20;64.40
13405;DHT22;6773;51.192;7.024;2023-03-01T10:53:48;10.80;63.60
13405;DHT22;6773;51.192;7.024;2023-03-01T10:56:15;10.40;64.90
13405;DHT22;6773;51.192;7.024;2023-03-01T10:59:04;10.10;64.00
13405;DHT22;6773;51.192;7.024;2023-03-01T11:01:33;10.20;64.70
13405;DHT22;6773;51.192;7.024;2023-03-01T11:04:12;11.60;62.40
13405;DHT22;6773;51.192;7.024;2023-03-01T11:06:40;12.40;63.80
13405;DHT22;6773;51.192;7.024;2023-03-01T11:09:32;12.50;61.30
13405;DHT22;6773;51.192;7.024;2023-03-01T11:12:08;12.10;61.00
13405;DHT22;6773;51.192;7.024;2023-03-01T11:14:39;12.40;59.20
13405;DHT22;6773;51.192;7.024;2023-03-01T11:17:21;12.50;60.80
13405;DHT22;6773;51.192;7.024;2023-03-01T11:20:21;12.90;60.20
13405;DHT22;6773;51.192;7.024;2023-03-01T11:22:58;13.10;58.20
13405;DHT22;6773;51.192;7.024;2023-03-01T11:25:42;13.30;57.50
13405;DHT22;6773;51.192;7.024;2023-03-01T11:28:14;13.30;57.20
13405;DHT22;6773;51.192;7.024;2023-03-01T11:30:53;12.60;55.70
13405;DHT22;6773;51.192;7.024;2023-03-01T11:36:32;13.00;57.40
13405;DHT22;6773;51.192;7.024;2023-03-01T11:42:14;13.60;57.60
13405;DHT22;6773;51.192;7.024;2023-03-01T11:44:41;13.60;57.30
13405;DHT22;6773;51.192;7.024;2023-03-01T11:52:45;13.40;57.20
13405;DHT22;6773;51.192;7.024;2023-03-01T11:55:24;13.50;56.80
13405;DHT22;6773;51.192;7.024;2023-03-01T12:01:09;13.40;57.40
13405;DHT22;6773;51.192;7.024;2023-03-01T12:09:22;13.60;56.20
13405;DHT22;6773;51.192;7.024;2023-03-01T12:12:29;13.50;55.60
13405;DHT22;6773;51.192;7.024;2023-03-01T12:15:11;13.50;56.60
13405;DHT22;6773;51.192;7.024;2023-03-01T12:20:43;13.70;55.60
13405;DHT22;6773;51.192;7.024;2023-03-01T12:28:44;13.50;55.30
13405;DHT22;6773;51.192;7.024;2023-03-01T12:45:12;13.30;54.50
13405;DHT22;6773;51.192;7.024;2023-03-01T12:47:30;13.30;55.40
13405;DHT22;6773;51.192;7.024;2023-03-01T12:50:05;13.40;56.10
13405;DHT22;6773;51.192;7.024;2023-03-01T12:52:52;13.40;55.10
13405;DHT22;6773;51.192;7.024;2023-03-01T12:55:29;13.60;56.70
13405;DHT22;6773;51.192;7.024;2023-03-01T12:58:05;13.40;56.20
13405;DHT22;6773;51.192;7.024;2023-03-01T13:09:05;12.90;57.20
13405;DHT22;6773;51.192;7.024;2023-03-01T13:11:32;12.80;57.10
13405;DHT22;6773;51.192;7.024;2023-03-01T13:16:45;12.40;57.30
13405;DHT22;6773;51.192;7.024;2023-03-01T13:19:21;12.40;58.60
13405;DHT22;6773;51.192;7.024;2023-03-01T13:21:49;12.10;58.20
13405;DHT22;6773;51.192;7.024;2023-03-01T13:24:33;11.60;58.40
13405;DHT22;6773;51.192;7.024;2023-03-01T13:29:57;12.00;59.30
13405;DHT22;6773;51.192;7.024;2023-03-01T13:34:58;11.60;59.40
13405;DHT22;6773;51.192;7.024;2023-03-01T13:37:29;11.60;59.50
13405;DHT22;6773;51.192;7.024;2023-03-01T13:40:01;11.30;60.60
13405;DHT22;6773;51.192;7.024;2023-03-01T13:42:41;11.50;59.80
13405;DHT22;6773;51.192;7.024;2023-03-01T13:45:34;11.60;60.20
13405;DHT22;6773;51.192;7.024;2023-03-01T13:50:51;12.00;59.50
13405;DHT22;6773;51.192;7.024;2023-03-01T13:53:21;11.90;58.80
13405;DHT22;6773;51.192;7.024;2023-03-01T13:55:54;12.10;60.70
13405;DHT22;6773;51.192;7.024;2023-03-01T13:58:29;12.10;59.60
13405;DHT22;6773;51.192;7.024;2023-03-01T14:01:02;12.10;61.30
13405;DHT22;6773;51.192;7.024;2023-03-01T14:03:29;12.20;59.90
13405;DHT22;6773;51.192;7.024;2023-03-01T14:06:08;12.10;60.80
13405;DHT22;6773;51.192;7.024;2023-03-01T14:08:37;11.90;60.60
13405;DHT22;6773;51.192;7.024;2023-03-01T14:19:26;10.70;61.00
13405;DHT22;6773;51.192;7.024;2023-03-01T14:22:20;10.80;63.00
13405;DHT22;6773;51.192;7.024;2023-03-01T14:24:54;11.20;62.40
13405;DHT22;6773;51.192;7.024;2023-03-01T14:30:10;11.20;61.50
13405;DHT22;6773;51.192;7.024;2023-03-01T14:32:52;11.70;61.50
13405;DHT22;6773;51.192;7.024;2023-03-01T14:35:23;12.10;59.40
13405;DHT22;6773;51.192;7.024;2023-03-01T14:37:49;12.30;59.40
13405;DHT22;6773;51.192;7.024;2023-03-01T14:42:57;11.70;59.20
13405;DHT22;6773;51.192;7.024;2023-03-01T14:45:26;11.30;58.90
13405;DHT22;6773;51.192;7.024;2023-03-01T14:47:53;11.30;60.20
13405;DHT22;6773;51.192;7.024;2023-03-01T14:50:30;11.50;60.00
13405;DHT22;6773;51.192;7.024;2023-03-01T14:52:59;11.40;59.20
13405;DHT22;6773;51.192;7.024;2023-03-01T14:55:37;11.10;59.70
13405;DHT22;6773;51.192;7.024;2023-03-01T14:58:05;11.10;60.90
13405;DHT22;6773;51.192;7.024;2023-03-01T15:00:33;11.20;59.00
13405;DHT22;6773;51.192;7.024;2023-03-01T15:03:20;10.90;59.00
13405;DHT22;6773;51.192;7.024;2023-03-01T15:05:49;10.40;60.00
13405;DHT22;6773;51.192;7.024;2023-03-01T15:08:19;10.30;60.80
13405;DHT22;6773;51.192;7.024;2023-03-01T15:10:57;10.10;60.60
13405;DHT22;6773;51.192;7.024;2023-03-01T15:13:25;10.00;59.80
13405;DHT22;6773;51.192;7.024;2023-03-01T15:18:34;10.10;59.60
13405;DHT22;6773;51.192;7.024;2023-03-01T15:26:24;10.50;60.00
13405;DHT22;6773;51.192;7.024;2023-03-01T15:28:52;10.60;60.20
13405;DHT22;6773;51.192;7.024;2023-03-01T15:31:28;10.60;59.80
13405;DHT22;6773;51.192;7.024;2023-03-01T15:36:47;10.20;60.30
13405;DHT22;6773;51.192;7.024;2023-03-01T15:41:56;10.10;60.40
13405;DHT22;6773;51.192;7.024;2023-03-01T15:44:29;9.90;60.30
13405;DHT22;6773;51.192;7.024;2023-03-01T15:46:55;10.10;60.30
13405;DHT22;6773;51.192;7.024;2023-03-01T15:49:39;10.10;60.80
13405;DHT22;6773;51.192;7.024;2023-03-01T15:52:13;10.40;59.90
13405;DHT22;6773;51.192;7.024;2023-03-01T15:54:42;11.00;60.10
13405;DHT22;6773;51.192;7.024;2023-03-01T15:57:13;11.30;58.70
13405;DHT22;6773;51.192;7.024;2023-03-01T15:59:40;11.60;58.50
13405;DHT22;6773;51.192;7.024;2023-03-01T16:02:11;11.70;57.20
13405;DHT22;6773;51.192;7.024;2023-03-01T16:04:38;12.00;58.00
13405;DHT22;6773;51.192;7.024;2023-03-01T16:07:04;12.50;56.80
13405;DHT22;6773;51.192;7.024;2023-03-01T16:09:29;12.60;56.50
13405;DHT22;6773;51.192;7.024;2023-03-01T16:11:55;12.40;56.80
13405;DHT22;6773;51.192;7.024;2023-03-01T16:14:21;12.20;56.20
13405;DHT22;6773;51.192;7.024;2023-03-01T16:16:48;12.10;57.00
13405;DHT22;6773;51.192;7.024;2023-03-01T16:19:14;12.40;56.20
13405;DHT22;6773;51.192;7.024;2023-03-01T16:21:41;12.20;56.50
13405;DHT22;6773;51.192;7.024;2023-03-01T16:24:08;12.30;56.00
13405;DHT22;6773;51.192;7.024;2023-03-01T16:26:34;11.90;56.40
13405;DHT22;6773;51.192;7.024;2023-03-01T16:29:01;12.20;57.00
13405;DHT22;6773;51.192;7.024;2023-03-01T16:31:27;12.30;55.90
13405;DHT22;6773;51.192;7.024;2023-03-01T16:33:55;12.10;56.70
13405;DHT22;6773;51.192;7.024;2023-03-01T16:36:22;11.50;57.00
13405;DHT22;6773;51.192;7.024;2023-03-01T16:38:49;11.10;57.30
13405;DHT22;6773;51.192;7.024;2023-03-01T16:41:17;11.00;57.80
13405;DHT22;6773;51.192;7.024;2023-03-01T16:43:43;10.50;58.40
13405;DHT22;6773;51.192;7.024;2023-03-01T16:46:13;10.20;58.80
13405;DHT22;6773;51.192;7.024;2023-03-01T16:48:39;9.90;59.60
13405;DHT22;6773;51.192;7.024;2023-03-01T16:51:06;9.70;59.40
13405;DHT22;6773;51.192;7.024;2023-03-01T16:53:33;9.30;60.40
13405;DHT22;6773;51.192;7.024;2023-03-01T16:55:59;8.80;61.00
13405;DHT22;6773;51.192;7.024;2023-03-01T16:58:25;8.50;61.90
13405;DHT22;6773;51.192;7.024;2023-03-01T17:00:52;7.90;62.70
13405;DHT22;6773;51.192;7.024;2023-03-01T17:03:19;7.60;64.40
13405;DHT22;6773;51.192;7.024;2023-03-01T17:05:45;7.20;64.50
13405;DHT22;6773;51.192;7.024;2023-03-01T17:08:10;6.90;65.30
13405;DHT22;6773;51.192;7.024;2023-03-01T17:10:36;6.50;66.30
13405;DHT22;6773;51.192;7.024;2023-03-01T17:15:28;5.90;68.10
13405;DHT22;6773;51.192;7.024;2023-03-01T17:17:54;5.70;69.20
13405;DHT22;6773;51.192;7.024;2023-03-01T17:20:20;5.50;69.60
13405;DHT22;6773;51.192;7.024;2023-03-01T17:22:45;5.40;70.40
13405;DHT22;6773;51.192;7.024;2023-03-01T17:25:11;5.30;70.70
13405;DHT22;6773;51.192;7.024;2023-03-01T17:27:38;5.30;71.20
13405;DHT22;6773;51.192;7.024;2023-03-01T17:30:07;5.20;71.30
13405;DHT22;6773;51.192;7.024;2023-03-01T17:37:25;4.90;72.30
13405;DHT22;6773;51.192;7.024;2023-03-01T17:44:42;4.60;73.40
13405;DHT22;6773;51.192;7.024;2023-03-01T17:47:09;4.60;73.50
13405;DHT22;6773;51.192;7.024;2023-03-01T17:49:35;4.60;74.10
13405;DHT22;6773;51.192;7.024;2023-03-01T17:54:27;4.40;74.30
13405;DHT22;6773;51.192;7.024;2023-03-01T17:56:52;4.40;74.50
13405;DHT22;6773;51.192;7.024;2023-03-01T17:59:20;4.40;74.40
13405;DHT22;6773;51.192;7.024;2023-03-01T18:01:46;4.40;74.70
13405;DHT22;6773;51.192;7.024;2023-03-01T18:06:37;4.20;75.30
13405;DHT22;6773;51.192;7.024;2023-03-01T18:09:05;4.20;75.90
13405;DHT22;6773;51.192;7.024;2023-03-01T18:11:32;4.20;76.00
13405;DHT22;6773;51.192;7.024;2023-03-01T18:18:54;4.00;77.10
13405;DHT22;6773;51.192;7.024;2023-03-01T18:21:20;3.10;76.40
13405;DHT22;6773;51.192;7.024;2023-03-01T18:23:47;3.90;77.10
13405;DHT22;6773;51.192;7.024;2023-03-01T18:26:14;3.90;77.40
13405;DHT22;6773;51.192;7.024;2023-03-01T18:28:43;3.90;77.70
13405;DHT22;6773;51.192;7.024;2023-03-01T18:31:13;3.90;78.40
13405;DHT22;6773;51.192;7.024;2023-03-01T18:36:20;3.80;79.00
13405;DHT22;6773;51.192;7.024;2023-03-01T18:38:46;3.70;79.30
13405;DHT22;6773;51.192;7.024;2023-03-01T18:43:38;3.60;79.20
13405;DHT22;6773;51.192;7.024;2023-03-01T18:46:03;3.70;79.80
13405;DHT22;6773;51.192;7.024;2023-03-01T18:48:30;3.60;80.00
13405;DHT22;6773;51.192;7.024;2023-03-01T18:50:56;3.60;80.40
13405;DHT22;6773;51.192;7.024;2023-03-01T18:53:22;3.60;80.80
13405;DHT22;6773;51.192;7.024;2023-03-01T18:58:13;3.60;81.10
13405;DHT22;6773;51.192;7.024;2023-03-01T19:00:39;3.60;81.70
13405;DHT22;6773;51.192;7.024;2023-03-01T19:05:31;3.40;82.30
13405;DHT22;6773;51.192;7.024;2023-03-01T19:10:23;3.50;82.30
13405;DHT22;6773;51.192;7.024;2023-03-01T19:12:49;3.30;82.60
13405;DHT22;6773;51.192;7.024;2023-03-01T19:15:15;3.30;82.90
13405;DHT22;6773;51.192;7.024;2023-03-01T19:17:41;3.30;83.20
13405;DHT22;6773;51.192;7.024;2023-03-01T19:20:07;3.30;83.50
13405;DHT22;6773;51.192;7.024;2023-03-01T19:22:33;3.30;84.00
13405;DHT22;6773;51.192;7.024;2023-03-01T19:24:59;3.20;84.30
13405;DHT22;6773;51.192;7.024;2023-03-01T19:29:50;3.10;84.60
13405;DHT22;6773;51.192;7.024;2023-03-01T19:32:16;3.20;84.70
13405;DHT22;6773;51.192;7.024;2023-03-01T19:34:42;3.00;84.70
13405;DHT22;6773;51.192;7.024;2023-03-01T19:37:07;3.10;84.70
13405;DHT22;6773;51.192;7.024;2023-03-01T19:39:34;3.10;85.00
13405;DHT22;6773;51.192;7.024;2023-03-01T19:42:00;3.10;85.40